createdAt,value
2018-11-04T00:00:09.815Z,1004.78
2018-11-04T00:01:08.196Z,1004.78
2018-11-04T00:02:07.359Z,1004.85
2018-11-04T00:03:08.667Z,1004.81
2018-11-04T00:04:07.274Z,1004.85
2018-11-04T00:05:08.148Z,1004.76
2018-11-04T00:06:06.330Z,1004.81
2018-11-04T00:07:04.585Z,1004.76
2018-11-04T00:08:06.920Z,1004.78
2018-11-04T00:09:06.130Z,1004.76
2018-11-04T00:10:05.666Z,1004.76
2018-11-04T00:11:09.816Z,1004.73
2018-11-04T00:12:09.126Z,1004.7
2018-11-04T00:13:07.961Z,1004.62
2018-11-04T00:14:06.570Z,1004.59
2018-11-04T00:15:05.119Z,1004.65
2018-11-04T00:16:06.054Z,1004.61
2018-11-04T00:17:06.140Z,1004.58
2018-11-04T00:18:07.922Z,1004.56
2018-11-04T00:19:06.920Z,1004.56
2018-11-04T00:20:04.867Z,1004.64
2018-11-04T00:21:04.082Z,1004.56
2018-11-04T00:22:02.342Z,1004.62
2018-11-04T00:23:02.094Z,1004.56
2018-11-04T00:24:00.149Z,1004.53
2018-11-04T00:25:00.223Z,1004.5
2018-11-04T00:26:04.895Z,1004.56
2018-11-04T00:27:06.318Z,1004.56
2018-11-04T00:28:04.731Z,1004.49
2018-11-04T00:29:04.971Z,1004.49
2018-11-04T00:30:03.768Z,1004.55
2018-11-04T00:31:02.457Z,1004.58
2018-11-04T00:32:06.685Z,1004.43
2018-11-04T00:33:09.215Z,1004.42
2018-11-04T00:34:07.996Z,1004.39
2018-11-04T00:35:07.274Z,1004.31
2018-11-04T00:36:11.541Z,1004.34
2018-11-04T00:37:16.521Z,1004.31
2018-11-04T00:38:16.796Z,1004.39
2018-11-04T00:39:16.943Z,1004.36
2018-11-04T00:40:28.324Z,1004.34
2018-11-04T00:41:27.534Z,1004.34
2018-11-04T00:42:27.312Z,1004.34
2018-11-04T00:43:32.594Z,1004.31
2018-11-04T00:44:30.525Z,1004.28
2018-11-04T00:45:33.874Z,1004.34
2018-11-04T00:46:32.878Z,1004.36
2018-11-04T00:47:32.955Z,1004.34
2018-11-04T00:48:33.651Z,1004.27
2018-11-04T00:49:32.418Z,1004.27
2018-11-04T00:50:34.883Z,1004.22
2018-11-04T00:51:36.834Z,1004.22
2018-11-04T00:52:35.043Z,1004.22
2018-11-04T00:53:37.857Z,1004.21
2018-11-04T00:54:37.299Z,1004.16
2018-11-04T00:55:35.239Z,1004.18
2018-11-04T00:56:34.564Z,1004.21
2018-11-04T00:57:33.095Z,1004.15
2018-11-04T00:58:31.287Z,1004.22
2018-11-04T00:59:33.781Z,1004.25
2018-11-04T01:00:37.043Z,1004.19
2018-11-04T01:01:37.539Z,1004.12
2018-11-04T01:02:36.724Z,1004.12
2018-11-04T01:03:37.065Z,1004.1
2018-11-04T01:04:35.476Z,1004.05
2018-11-04T01:05:33.317Z,1004.06
2018-11-04T01:06:33.890Z,1004
2018-11-04T01:07:40.569Z,1004.02
2018-11-04T01:08:38.846Z,1003.91
2018-11-04T01:09:39.110Z,1003.99
2018-11-04T01:10:39.125Z,1003.91
2018-11-04T01:11:38.392Z,1003.97
2018-11-04T01:12:41.766Z,1003.93
2018-11-04T01:13:41.249Z,1003.94
2018-11-04T01:14:43.612Z,1003.94
2018-11-04T01:15:46.876Z,1003.9
2018-11-04T01:16:51.935Z,1003.88
2018-11-04T01:17:51.372Z,1003.97
2018-11-04T01:18:51.088Z,1003.87
2018-11-04T01:19:51.228Z,1003.91
2018-11-04T01:20:50.154Z,1003.97
2018-11-04T01:21:49.435Z,1003.9
2018-11-04T01:22:48.664Z,1003.96
2018-11-04T01:23:50.828Z,1003.91
2018-11-04T01:24:51.873Z,1003.91
2018-11-04T01:25:56.854Z,1003.91
2018-11-04T01:26:54.938Z,1003.9
2018-11-04T01:27:55.821Z,1003.79
2018-11-04T01:28:59.938Z,1003.75
2018-11-04T01:30:05.950Z,1003.69
2018-11-04T01:31:04.344Z,1003.72
2018-11-04T01:32:20.930Z,1003.69
2018-11-04T01:33:20.050Z,1003.65
2018-11-04T01:34:29.948Z,1003.73
2018-11-04T01:35:36.907Z,1003.65
2018-11-04T01:36:36.790Z,1003.63
2018-11-04T01:37:35.330Z,1003.62
2018-11-04T01:38:36.319Z,1003.6
2018-11-04T01:39:36.039Z,1003.59
2018-11-04T01:40:33.916Z,1003.6
2018-11-04T01:41:36.435Z,1003.51
2018-11-04T01:42:36.655Z,1003.5
2018-11-04T01:43:34.933Z,1003.53
2018-11-04T01:44:33.125Z,1003.48
2018-11-04T01:45:31.150Z,1003.51
2018-11-04T01:46:30.394Z,1003.46
2018-11-04T01:47:29.478Z,1003.48
2018-11-04T01:48:31.371Z,1003.38
2018-11-04T01:49:30.166Z,1003.38
2018-11-04T01:50:38.085Z,1003.32
2018-11-04T01:51:38.021Z,1003.33
2018-11-04T01:52:49.509Z,1003.4
2018-11-04T01:53:50.355Z,1003.35
2018-11-04T01:54:51.250Z,1003.43
2018-11-04T01:55:53.667Z,1003.43
2018-11-04T01:56:53.848Z,1003.4
2018-11-04T01:57:56.808Z,1003.4
2018-11-04T01:58:58.721Z,1003.37
2018-11-04T02:00:02.827Z,1003.41
2018-11-04T02:01:02.200Z,1003.35
2018-11-04T02:02:01.247Z,1003.35
2018-11-04T02:02:59.266Z,1003.24
2018-11-04T02:03:57.401Z,1003.37
2018-11-04T02:04:58.563Z,1003.26
2018-11-04T02:05:57.640Z,1003.3
2018-11-04T02:06:55.473Z,1003.33
2018-11-04T02:07:54.843Z,1003.24
2018-11-04T02:08:54.755Z,1003.2
2018-11-04T02:09:56.420Z,1003.16
2018-11-04T02:10:55.727Z,1003.21
2018-11-04T02:11:58.294Z,1003.08
2018-11-04T02:13:01.093Z,1003.1
2018-11-04T02:13:59.246Z,1003.07
2018-11-04T02:14:58.240Z,1002.96
2018-11-04T02:16:06.384Z,1003.08
2018-11-04T02:17:06.912Z,1003.07
2018-11-04T02:18:11.677Z,1002.98
2018-11-04T02:19:09.630Z,1003.04
2018-11-04T02:20:12.933Z,1002.92
2018-11-04T02:21:22.361Z,1002.96
2018-11-04T02:22:21.499Z,1002.96
2018-11-04T02:23:20.464Z,1002.98
2018-11-04T02:24:18.546Z,1002.87
2018-11-04T02:25:18.098Z,1002.9
2018-11-04T02:26:18.448Z,1002.83
2018-11-04T02:27:26.757Z,1002.9
2018-11-04T02:28:25.185Z,1002.88
2018-11-04T02:29:28.360Z,1002.81
2018-11-04T02:30:26.102Z,1002.8
2018-11-04T02:31:23.794Z,1002.75
2018-11-04T02:32:26.366Z,1002.77
2018-11-04T02:33:25.136Z,1002.81
2018-11-04T02:34:22.947Z,1002.77
2018-11-04T02:35:25.730Z,1002.74
2018-11-04T02:36:23.820Z,1002.81
2018-11-04T02:37:21.942Z,1002.62
2018-11-04T02:38:27.547Z,1002.8
2018-11-04T02:39:28.969Z,1002.78
2018-11-04T02:40:32.699Z,1002.77
2018-11-04T02:41:31.276Z,1002.62
2018-11-04T02:42:32.816Z,1002.71
2018-11-04T02:43:32.330Z,1002.75
2018-11-04T02:44:29.885Z,1002.62
2018-11-04T02:45:29.012Z,1002.56
2018-11-04T02:46:26.484Z,1002.53
2018-11-04T02:47:24.194Z,1002.56
2018-11-04T02:48:25.175Z,1002.58
2018-11-04T02:49:23.812Z,1002.62
2018-11-04T02:50:28.008Z,1002.55
2018-11-04T02:51:25.867Z,1002.62
2018-11-04T02:52:29.772Z,1002.63
2018-11-04T02:53:27.569Z,1002.58
2018-11-04T02:54:27.390Z,1002.61
2018-11-04T02:55:39.751Z,1002.53
2018-11-04T02:56:38.609Z,1002.52
2018-11-04T02:57:36.270Z,1002.5
2018-11-04T02:58:34.393Z,1002.53
2018-11-04T02:59:32.388Z,1002.49
2018-11-04T03:00:35.325Z,1002.47
2018-11-04T03:01:39.354Z,1002.41
2018-11-04T03:02:37.998Z,1002.5
2018-11-04T03:03:36.956Z,1002.46
2018-11-04T03:04:34.593Z,1002.37
2018-11-04T03:05:33.505Z,1002.38
2018-11-04T03:06:31.148Z,1002.41
2018-11-04T03:07:29.407Z,1002.41
2018-11-04T03:08:29.675Z,1002.33
2018-11-04T03:09:31.727Z,1002.47
2018-11-04T03:10:30.484Z,1002.37
2018-11-04T03:11:28.435Z,1002.34
2018-11-04T03:12:32.084Z,1002.34
2018-11-04T03:13:33.057Z,1002.4
2018-11-04T03:14:30.843Z,1002.31
2018-11-04T03:15:29.596Z,1002.34
2018-11-04T03:16:27.555Z,1002.28
2018-11-04T03:17:26.572Z,1002.27
2018-11-04T03:18:28.070Z,1002.3
2018-11-04T03:19:26.006Z,1002.27
2018-11-04T03:20:28.041Z,1002.3
2018-11-04T03:21:31.340Z,1002.12
2018-11-04T03:22:31.002Z,1002.19
2018-11-04T03:23:30.087Z,1002.28
2018-11-04T03:24:31.676Z,1002.22
2018-11-04T03:25:29.063Z,1002.22
2018-11-04T03:26:26.664Z,1002.19
2018-11-04T03:27:24.889Z,1002.27
2018-11-04T03:28:30.739Z,1002.21
2018-11-04T03:29:36.040Z,1002.18
2018-11-04T03:30:34.452Z,1002.15
2018-11-04T03:31:35.785Z,1002.15
2018-11-04T03:32:34.512Z,1002.12
2018-11-04T03:33:47.767Z,1002.08
2018-11-04T03:34:49.932Z,1002.09
2018-11-04T03:35:49.188Z,1002.03
2018-11-04T03:36:47.891Z,1002.12
2018-11-04T03:37:46.752Z,1002.1
2018-11-04T03:38:46.520Z,1002.16
2018-11-04T03:39:46.018Z,1002.12
2018-11-04T03:40:46.012Z,1002.19
2018-11-04T03:41:46.561Z,1002.13
2018-11-04T03:42:44.762Z,1002.22
2018-11-04T03:43:45.087Z,1002.12
2018-11-04T03:44:44.237Z,1002.21
2018-11-04T03:45:41.711Z,1002.22
2018-11-04T03:46:39.833Z,1002.21
2018-11-04T03:47:26.646Z,1002.12
2018-11-04T03:48:23.712Z,1002.18
2018-11-04T03:49:21.616Z,1002.16
2018-11-04T03:50:21.191Z,1002.22
2018-11-04T03:51:21.322Z,1002.15
2018-11-04T03:52:19.934Z,1002.24
2018-11-04T03:53:21.544Z,1002.22
2018-11-04T03:54:19.668Z,1002.25
2018-11-04T03:55:24.389Z,1002.24
2018-11-04T03:56:23.122Z,1002.3
2018-11-04T03:57:23.695Z,1002.27
2018-11-04T03:58:21.193Z,1002.28
2018-11-04T03:59:18.726Z,1002.27
2018-11-04T04:00:19.738Z,1002.28
2018-11-04T04:01:19.878Z,1002.27
2018-11-04T04:02:18.553Z,1002.32
2018-11-04T04:03:18.415Z,1002.22
2018-11-04T04:04:18.828Z,1002.27
2018-11-04T04:05:20.056Z,1002.19
2018-11-04T04:06:18.564Z,1002.25
2018-11-04T04:07:17.123Z,1002.21
2018-11-04T04:08:16.434Z,1002.21
2018-11-04T04:09:24.737Z,1002.12
2018-11-04T04:10:24.977Z,1002.21
2018-11-04T04:11:22.950Z,1002.24
2018-11-04T04:12:27.459Z,1002.18
2018-11-04T04:13:25.925Z,1002.16
2018-11-04T04:14:31.214Z,1002.13
2018-11-04T04:15:31.454Z,1002.18
2018-11-04T04:16:32.623Z,1002.16
2018-11-04T04:17:31.362Z,1002.13
2018-11-04T04:18:32.037Z,1002.1
2018-11-04T04:19:31.842Z,1002.12
2018-11-04T04:20:30.295Z,1002.12
2018-11-04T04:21:40.204Z,1002.18
2018-11-04T04:22:38.048Z,1002.1
2018-11-04T04:23:36.022Z,1002.12
2018-11-04T04:24:34.930Z,1002.09
2018-11-04T04:25:34.068Z,1002.03
2018-11-04T04:26:33.652Z,1001.96
2018-11-04T04:27:31.990Z,1001.99
2018-11-04T04:28:30.058Z,1002
2018-11-04T04:29:28.976Z,1002.09
2018-11-04T04:30:27.039Z,1002.07
2018-11-04T04:31:30.526Z,1002.03
2018-11-04T04:32:29.689Z,1002.02
2018-11-04T04:33:29.642Z,1001.97
2018-11-04T04:34:27.349Z,1001.99
2018-11-04T04:35:25.023Z,1001.9
2018-11-04T04:36:23.942Z,1001.97
2018-11-04T04:37:22.744Z,1002.02
2018-11-04T04:38:21.832Z,1001.88
2018-11-04T04:39:20.479Z,1001.97
2018-11-04T04:40:19.619Z,1001.94
2018-11-04T04:41:17.298Z,1001.87
2018-11-04T04:42:15.409Z,1001.88
2018-11-04T04:43:16.237Z,1001.96
2018-11-04T04:44:14.710Z,1001.87
2018-11-04T04:45:14.750Z,1001.88
2018-11-04T04:46:14.654Z,1001.82
2018-11-04T04:47:12.604Z,1001.87
2018-11-04T04:48:10.716Z,1001.87
2018-11-04T04:49:08.115Z,1001.88
2018-11-04T04:50:06.255Z,1001.9
2018-11-04T04:51:06.005Z,1001.85
2018-11-04T04:52:04.169Z,1001.82
2018-11-04T04:53:15.414Z,1001.97
2018-11-04T04:54:12.776Z,1001.78
2018-11-04T04:55:11.380Z,1001.87
2018-11-04T04:56:10.381Z,1001.85
2018-11-04T04:57:07.742Z,1001.82
2018-11-04T04:58:06.063Z,1001.8
2018-11-04T04:59:04.222Z,1001.82
2018-11-04T05:00:03.851Z,1001.85
2018-11-04T05:01:10.228Z,1001.85
2018-11-04T05:02:09.116Z,1001.81
2018-11-04T05:03:09.495Z,1001.74
2018-11-04T05:04:06.873Z,1001.75
2018-11-04T05:05:04.736Z,1001.8
2018-11-04T05:06:05.347Z,1001.78
2018-11-04T05:07:07.435Z,1001.74
2018-11-04T05:08:05.077Z,1001.75
2018-11-04T05:09:11.352Z,1001.75
2018-11-04T05:10:08.975Z,1001.71
2018-11-04T05:11:14.850Z,1001.72
2018-11-04T05:12:15.506Z,1001.77
2018-11-04T05:13:15.130Z,1001.71
2018-11-04T05:14:16.043Z,1001.75
2018-11-04T05:15:15.230Z,1001.8
2018-11-04T05:16:14.219Z,1001.81
2018-11-04T05:17:13.052Z,1001.78
2018-11-04T05:18:12.244Z,1001.82
2018-11-04T05:19:24.981Z,1001.74
2018-11-04T05:20:22.567Z,1001.74
2018-11-04T05:21:20.182Z,1001.75
2018-11-04T05:22:17.523Z,1001.77
2018-11-04T05:23:17.329Z,1001.69
2018-11-04T05:24:17.785Z,1001.74
2018-11-04T05:25:16.396Z,1001.8
2018-11-04T05:26:18.663Z,1001.74
2018-11-04T05:27:18.428Z,1001.65
2018-11-04T05:28:20.108Z,1001.69
2018-11-04T05:29:18.465Z,1001.78
2018-11-04T05:30:17.484Z,1001.74
2018-11-04T05:31:17.566Z,1001.77
2018-11-04T05:32:14.996Z,1001.66
2018-11-04T05:33:15.669Z,1001.65
2018-11-04T05:34:14.699Z,1001.68
2018-11-04T05:35:13.769Z,1001.74
2018-11-04T05:36:18.332Z,1001.74
2018-11-04T05:37:18.881Z,1001.65
2018-11-04T05:38:16.474Z,1001.74
2018-11-04T05:39:17.326Z,1001.68
2018-11-04T05:40:19.149Z,1001.68
2018-11-04T05:41:25.018Z,1001.63
2018-11-04T05:42:23.757Z,1001.71
2018-11-04T05:43:26.900Z,1001.59
2018-11-04T05:44:24.448Z,1001.62
2018-11-04T05:45:25.730Z,1001.65
2018-11-04T05:46:24.361Z,1001.63
2018-11-04T05:47:24.183Z,1001.71
2018-11-04T05:48:28.463Z,1001.68
2018-11-04T05:49:37.355Z,1001.62
2018-11-04T05:50:36.229Z,1001.6
2018-11-04T05:51:36.381Z,1001.53
2018-11-04T05:52:33.903Z,1001.56
2018-11-04T05:53:35.049Z,1001.62
2018-11-04T05:54:40.140Z,1001.59
2018-11-04T05:55:38.762Z,1001.62
2018-11-04T05:56:41.437Z,1001.57
2018-11-04T05:57:39.061Z,1001.63
2018-11-04T05:58:36.997Z,1001.53
2018-11-04T05:59:36.740Z,1001.57
2018-11-04T06:00:36.682Z,1001.57
2018-11-04T06:01:38.671Z,1001.56
2018-11-04T06:02:39.313Z,1001.59
2018-11-04T06:03:37.325Z,1001.53
2018-11-04T06:04:34.894Z,1001.56
2018-11-04T06:05:33.326Z,1001.59
2018-11-04T06:06:34.421Z,1001.6
2018-11-04T06:07:33.581Z,1001.55
2018-11-04T06:08:33.307Z,1001.63
2018-11-04T06:09:33.094Z,1001.57
2018-11-04T06:10:38.676Z,1001.6
2018-11-04T06:11:41.226Z,1001.69
2018-11-04T06:12:39.987Z,1001.57
2018-11-04T06:13:47.364Z,1001.6
2018-11-04T06:14:45.382Z,1001.57
2018-11-04T06:15:42.862Z,1001.56
2018-11-04T06:16:45.213Z,1001.6
2018-11-04T06:17:44.011Z,1001.59
2018-11-04T06:18:49.574Z,1001.55
2018-11-04T06:19:47.097Z,1001.47
2018-11-04T06:20:54.362Z,1001.57
2018-11-04T06:21:54.412Z,1001.57
2018-11-04T06:23:04.356Z,1001.53
2018-11-04T06:24:03.964Z,1001.6
2018-11-04T06:25:04.116Z,1001.56
2018-11-04T06:26:03.295Z,1001.56
2018-11-04T06:27:01.098Z,1001.56
2018-11-04T06:27:59.002Z,1001.55
2018-11-04T06:29:01.263Z,1001.53
2018-11-04T06:29:58.725Z,1001.5
2018-11-04T06:30:59.893Z,1001.47
2018-11-04T06:31:59.889Z,1001.59
2018-11-04T06:32:57.645Z,1001.56
2018-11-04T06:34:05.581Z,1001.53
2018-11-04T06:35:04.102Z,1001.62
2018-11-04T06:36:01.857Z,1001.62
2018-11-04T06:37:02.638Z,1001.55
2018-11-04T06:38:01.181Z,1001.53
2018-11-04T06:38:59.675Z,1001.56
2018-11-04T06:40:04.160Z,1001.53
2018-11-04T06:41:02.061Z,1001.55
2018-11-04T06:42:01.892Z,1001.55
2018-11-04T06:43:00.255Z,1001.52
2018-11-04T06:44:01.153Z,1001.53
2018-11-04T06:44:58.815Z,1001.52
2018-11-04T06:45:58.587Z,1001.59
2018-11-04T06:46:57.887Z,1001.57
2018-11-04T06:47:55.761Z,1001.57
2018-11-04T06:48:58.834Z,1001.53
2018-11-04T06:49:56.339Z,1001.57
2018-11-04T06:50:54.755Z,1001.57
2018-11-04T06:52:06.872Z,1001.56
2018-11-04T06:53:04.172Z,1001.56
2018-11-04T06:54:08.505Z,1001.6
2018-11-04T06:55:08.078Z,1001.44
2018-11-04T06:56:05.997Z,1001.55
2018-11-04T06:57:03.428Z,1001.55
2018-11-04T06:58:01.440Z,1001.63
2018-11-04T06:59:00.990Z,1001.62
2018-11-04T07:00:00.202Z,1001.55
2018-11-04T07:01:01.929Z,1001.52
2018-11-04T07:02:03.583Z,1001.42
2018-11-04T07:03:01.179Z,1001.53
2018-11-04T07:04:09.864Z,1001.5
2018-11-04T07:05:09.736Z,1001.42
2018-11-04T07:06:10.285Z,1001.55
2018-11-04T07:07:14.289Z,1001.53
2018-11-04T07:08:11.712Z,1001.54
2018-11-04T07:09:12.696Z,1001.59
2018-11-04T07:10:15.676Z,1001.54
2018-11-04T07:11:17.404Z,1001.59
2018-11-04T07:12:15.382Z,1001.62
2018-11-04T07:13:13.090Z,1001.56
2018-11-04T07:14:11.275Z,1001.54
2018-11-04T07:15:09.246Z,1001.53
2018-11-04T07:16:08.736Z,1001.5
2018-11-04T07:17:11.449Z,1001.54
2018-11-04T07:18:09.480Z,1001.59
2018-11-04T07:19:07.337Z,1001.53
2018-11-04T07:20:05.052Z,1001.63
2018-11-04T07:21:03.590Z,1001.57
2018-11-04T07:22:01.591Z,1001.53
2018-11-04T07:23:00.581Z,1001.53
2018-11-04T07:24:04.824Z,1001.57
2018-11-04T07:25:02.538Z,1001.6
2018-11-04T07:26:00.424Z,1001.56
2018-11-04T07:26:58.224Z,1001.52
2018-11-04T07:27:57.795Z,1001.54
2018-11-04T07:28:55.100Z,1001.57
2018-11-04T07:29:52.388Z,1001.65
2018-11-04T07:30:50.471Z,1001.56
2018-11-04T07:31:50.487Z,1001.57
2018-11-04T07:32:51.394Z,1001.54
2018-11-04T07:33:49.178Z,1001.54
2018-11-04T07:34:51.557Z,1001.56
2018-11-04T07:35:53.982Z,1001.62
2018-11-04T07:36:54.859Z,1001.53
2018-11-04T07:37:54.078Z,1001.47
2018-11-04T07:38:54.141Z,1001.5
2018-11-04T07:39:51.164Z,1001.5
2018-11-04T07:41:05.702Z,1001.47
2018-11-04T07:42:03.852Z,1001.5
2018-11-04T07:43:11.572Z,1001.41
2018-11-04T07:44:09.820Z,1001.41
2018-11-04T07:45:07.499Z,1001.47
2018-11-04T07:46:05.362Z,1001.44
2018-11-04T07:47:03.330Z,1001.42
2018-11-04T07:48:04.258Z,1001.39
2018-11-04T07:49:02.491Z,1001.33
2018-11-04T07:50:07.459Z,1001.35
2018-11-04T07:51:06.984Z,1001.45
2018-11-04T07:52:04.935Z,1001.36
2018-11-04T07:53:02.944Z,1001.33
2018-11-04T07:54:01.590Z,1001.39
2018-11-04T07:55:06.644Z,1001.35
2018-11-04T07:56:06.570Z,1001.33
2018-11-04T07:57:07.819Z,1001.39
2018-11-04T07:58:06.926Z,1001.31
2018-11-04T07:59:09.771Z,1001.33
2018-11-04T08:00:08.275Z,1001.32
2018-11-04T08:01:13.441Z,1001.36
2018-11-04T08:02:12.495Z,1001.23
2018-11-04T08:03:10.272Z,1001.28
2018-11-04T08:04:12.386Z,1001.2
2018-11-04T08:05:09.888Z,1001.25
2018-11-04T08:06:09.385Z,1001.19
2018-11-04T08:07:08.909Z,1001.17
2018-11-04T08:08:07.206Z,1001.2
2018-11-04T08:09:05.785Z,1001.16
2018-11-04T08:10:05.413Z,1001.17
2018-11-04T08:11:06.384Z,1001.19
2018-11-04T08:12:08.534Z,1001.17
2018-11-04T08:13:08.689Z,1001.16
2018-11-04T08:14:07.713Z,1001.14
2018-11-04T08:15:14.471Z,1001.14
2018-11-04T08:16:16.696Z,1001.16
2018-11-04T08:17:14.334Z,1001.13
2018-11-04T08:18:11.892Z,1001.13
2018-11-04T08:19:11.947Z,1001.14
2018-11-04T08:20:09.389Z,1001.06
2018-11-04T08:21:08.327Z,1001.07
2018-11-04T08:22:09.919Z,1001.07
2018-11-04T08:23:09.820Z,1000.95
2018-11-04T08:24:08.830Z,1001.01
2018-11-04T08:25:06.527Z,1000.98
2018-11-04T08:26:10.228Z,1000.98
2018-11-04T08:27:08.701Z,1001
2018-11-04T08:28:10.294Z,1000.98
2018-11-04T08:29:09.383Z,1000.94
2018-11-04T08:30:11.173Z,1001
2018-11-04T08:31:10.007Z,1000.97
2018-11-04T08:32:08.356Z,1000.91
2018-11-04T08:33:06.044Z,1000.98
2018-11-04T08:34:10.060Z,1000.93
2018-11-04T08:35:07.613Z,1000.96
2018-11-04T08:36:13.205Z,1000.93
2018-11-04T08:37:12.391Z,1000.99
2018-11-04T08:38:11.163Z,1001.07
2018-11-04T08:39:11.828Z,1001.06
2018-11-04T08:40:10.918Z,1001.04
2018-11-04T08:41:13.145Z,1001.12
2018-11-04T08:42:16.201Z,1001.03
2018-11-04T08:43:19.585Z,1000.97
2018-11-04T08:44:17.468Z,1001.02
2018-11-04T08:45:17.094Z,1001.02
2018-11-04T08:46:15.307Z,1000.94
2018-11-04T08:47:13.487Z,1001.03
2018-11-04T08:48:12.055Z,1000.93
2018-11-04T08:49:09.840Z,1000.97
2018-11-04T08:50:10.224Z,1000.99
2018-11-04T08:51:14.719Z,1001
2018-11-04T08:52:18.867Z,1001.06
2018-11-04T08:53:17.085Z,1000.96
2018-11-04T08:54:17.148Z,1000.97
2018-11-04T08:55:16.718Z,1000.9
2018-11-04T08:56:22.126Z,1000.91
2018-11-04T08:57:22.481Z,1000.94
2018-11-04T08:58:22.822Z,1000.94
2018-11-04T08:59:23.698Z,1001
2018-11-04T09:00:23.591Z,1000.9
2018-11-04T09:01:25.102Z,1000.99
2018-11-04T09:02:33.747Z,1001
2018-11-04T09:03:32.124Z,1000.94
2018-11-04T09:04:38.996Z,1000.94
2018-11-04T09:05:37.423Z,1000.97
2018-11-04T09:06:42.348Z,1000.9
2018-11-04T09:07:47.095Z,1000.89
2018-11-04T09:08:48.671Z,1000.86
2018-11-04T09:09:49.318Z,1000.9
2018-11-04T09:11:01.548Z,1000.92
2018-11-04T09:12:05.892Z,1000.89
2018-11-04T09:13:11.318Z,1000.93
2018-11-04T09:14:09.305Z,1000.89
2018-11-04T09:15:10.326Z,1000.9
2018-11-04T09:16:11.552Z,1000.9
2018-11-04T09:17:17.949Z,1000.93
2018-11-04T09:18:18.818Z,1000.9
2018-11-04T09:19:26.844Z,1000.83
2018-11-04T09:20:25.186Z,1000.92
2018-11-04T09:21:38.326Z,1000.84
2018-11-04T09:22:39.491Z,1000.86
2018-11-04T09:23:38.462Z,1000.95
2018-11-04T09:24:36.618Z,1000.89
2018-11-04T09:25:40.855Z,1000.8
2018-11-04T09:26:39.297Z,1000.83
2018-11-04T09:27:40.926Z,1000.77
2018-11-04T09:28:44.463Z,1000.77
2018-11-04T09:29:44.337Z,1000.81
2018-11-04T09:30:43.042Z,1000.66
2018-11-04T09:31:41.797Z,1000.74
2018-11-04T09:32:40.340Z,1000.66
2018-11-04T09:33:38.850Z,1000.78
2018-11-04T09:34:40.718Z,1000.77
2018-11-04T09:35:43.027Z,1000.7
2018-11-04T09:36:51.497Z,1000.75
2018-11-04T09:37:55.943Z,1000.78
2018-11-04T09:38:54.204Z,1000.74
2018-11-04T09:39:55.230Z,1000.77
2018-11-04T09:40:54.543Z,1000.89
2018-11-04T09:41:53.407Z,1000.86
2018-11-04T09:42:53.292Z,1000.78
2018-11-04T09:43:54.977Z,1000.8
2018-11-04T09:45:04.940Z,1000.77
2018-11-04T09:46:03.891Z,1000.81
2018-11-04T09:47:06.264Z,1000.78
2018-11-04T09:48:05.067Z,1000.83
2018-11-04T09:49:04.179Z,1000.78
2018-11-04T09:50:02.797Z,1000.87
2018-11-04T09:51:01.736Z,1000.86
2018-11-04T09:52:00.087Z,1000.83
2018-11-04T09:52:59.597Z,1000.8
2018-11-04T09:54:02.359Z,1000.87
2018-11-04T09:55:01.874Z,1000.86
2018-11-04T09:56:00.667Z,1000.9
2018-11-04T09:57:03.016Z,1000.86
2018-11-04T09:58:04.399Z,1000.86
2018-11-04T09:59:02.883Z,1000.81
2018-11-04T10:00:05.660Z,1000.89
2018-11-04T10:01:05.397Z,1000.83
2018-11-04T10:02:13.634Z,1000.92
2018-11-04T10:03:11.865Z,1000.84
2018-11-04T10:04:16.687Z,1000.83
2018-11-04T10:05:30.150Z,1000.92
2018-11-04T10:06:30.912Z,1000.89
2018-11-04T10:07:31.672Z,1000.86
2018-11-04T10:08:33.439Z,1000.89
2018-11-04T10:09:35.436Z,1000.84
2018-11-04T10:10:41.140Z,1000.8
2018-11-04T10:11:46.107Z,1000.8
2018-11-04T10:12:49.285Z,1000.89
2018-11-04T10:13:54.314Z,1000.86
2018-11-04T10:14:53.885Z,1000.78
2018-11-04T10:15:53.042Z,1000.84
2018-11-04T10:16:52.182Z,1000.84
2018-11-04T10:17:51.678Z,1000.75
2018-11-04T10:18:57.042Z,1000.83
2018-11-04T10:19:56.697Z,1000.86
2018-11-04T10:21:00.211Z,1000.87
2018-11-04T10:21:45.653Z,1000.78
2018-11-04T10:22:50.823Z,1000.7
2018-11-04T10:23:54.101Z,1000.7
2018-11-04T10:24:59.230Z,1000.77
2018-11-04T10:25:59.187Z,1000.77
2018-11-04T10:26:57.361Z,1000.69
2018-11-04T10:27:57.616Z,1000.67
2018-11-04T10:28:57.562Z,1000.69
2018-11-04T10:29:56.939Z,1000.67
2018-11-04T10:31:00.580Z,1000.7
2018-11-04T10:32:00.211Z,1000.56
2018-11-04T10:33:00.021Z,1000.64
2018-11-04T10:33:58.708Z,1000.64
2018-11-04T10:34:57.309Z,1000.54
2018-11-04T10:35:56.955Z,1000.63
2018-11-04T10:37:04.128Z,1000.51
2018-11-04T10:38:04.071Z,1000.56
2018-11-04T10:39:05.912Z,1000.54
2018-11-04T10:40:04.130Z,1000.5
2018-11-04T10:41:09.025Z,1000.53
2018-11-04T10:42:11.884Z,1000.48
2018-11-04T10:43:18.031Z,1000.5
2018-11-04T10:44:16.756Z,1000.47
2018-11-04T10:45:17.064Z,1000.5
2018-11-04T10:46:22.849Z,1000.5
2018-11-04T10:47:30.960Z,1000.48
2018-11-04T10:48:29.140Z,1000.41
2018-11-04T10:49:27.497Z,1000.44
2018-11-04T10:50:28.634Z,1000.41
2018-11-04T10:51:27.707Z,1000.33
2018-11-04T10:52:28.935Z,1000.39
2018-11-04T10:53:29.885Z,1000.33
2018-11-04T10:54:28.206Z,1000.35
2018-11-04T10:55:30.126Z,1000.26
2018-11-04T10:56:28.539Z,1000.32
2018-11-04T10:57:41.056Z,1000.32
2018-11-04T10:58:43.454Z,1000.23
2018-11-04T10:59:42.540Z,1000.23
2018-11-04T11:00:42.090Z,1000.29
2018-11-04T11:01:42.609Z,1000.3
2018-11-04T11:02:40.893Z,1000.2
2018-11-04T11:03:43.090Z,1000.22
2018-11-04T11:04:42.878Z,1000.14
2018-11-04T11:05:44.646Z,1000.23
2018-11-04T11:06:45.979Z,1000.2
2018-11-04T11:07:49.475Z,1000.23
2018-11-04T11:08:52.601Z,1000.25
2018-11-04T11:09:54.214Z,1000.14
2018-11-04T11:10:54.785Z,1000.16
2018-11-04T11:11:53.436Z,1000.07
2018-11-04T11:12:53.781Z,1000.13
2018-11-04T11:13:52.381Z,1000.14
2018-11-04T11:14:53.219Z,1000.13
2018-11-04T11:15:52.809Z,1000.13
2018-11-04T11:16:51.017Z,1000.08
2018-11-04T11:17:49.081Z,1000.01
2018-11-04T11:18:47.614Z,999.99
2018-11-04T11:19:46.119Z,999.92
2018-11-04T11:20:48.650Z,999.91
2018-11-04T11:21:48.102Z,999.85
2018-11-04T11:22:47.596Z,999.95
2018-11-04T11:23:45.370Z,999.88
2018-11-04T11:24:48.842Z,999.77
2018-11-04T11:25:54.038Z,999.88
2018-11-04T11:26:52.711Z,999.82
2018-11-04T11:27:51.881Z,999.82
2018-11-04T11:28:51.135Z,999.75
2018-11-04T11:29:50.339Z,999.62
2018-11-04T11:30:49.920Z,999.79
2018-11-04T11:31:51.753Z,999.73
2018-11-04T11:32:53.879Z,999.68
2018-11-04T11:33:55.257Z,999.65
2018-11-04T11:34:54.991Z,999.75
2018-11-04T11:35:53.405Z,999.62
2018-11-04T11:36:55.089Z,999.59
2018-11-04T11:37:53.387Z,999.65
2018-11-04T11:38:52.921Z,999.53
2018-11-04T11:39:53.755Z,999.5
2018-11-04T11:40:55.942Z,999.52
2018-11-04T11:41:56.732Z,999.56
2018-11-04T11:42:54.853Z,999.52
2018-11-04T11:43:53.443Z,999.5
2018-11-04T11:44:56.289Z,999.48
2018-11-04T11:45:56.069Z,999.43
2018-11-04T11:46:54.839Z,999.5
2018-11-04T11:47:54.646Z,999.43
2018-11-04T11:48:53.162Z,999.43
2018-11-04T11:49:53.060Z,999.45
2018-11-04T11:50:54.029Z,999.45
2018-11-04T11:51:52.669Z,999.47
2018-11-04T11:52:51.732Z,999.46
2018-11-04T11:53:52.478Z,999.47
2018-11-04T11:54:51.148Z,999.43
2018-11-04T11:55:52.983Z,999.45
2018-11-04T11:56:53.738Z,999.39
2018-11-04T11:57:55.786Z,999.36
2018-11-04T11:58:53.783Z,999.4
2018-11-04T11:59:52.714Z,999.39
2018-11-04T12:00:52.306Z,999.31
2018-11-04T12:01:51.422Z,999.43
2018-11-04T12:02:50.481Z,999.39
2018-11-04T12:03:53.471Z,999.37
2018-11-04T12:04:52.719Z,999.28
2018-11-04T12:05:51.696Z,999.36
2018-11-04T12:06:51.105Z,999.33
2018-11-04T12:07:50.995Z,999.42
2018-11-04T12:08:49.908Z,999.27
2018-11-04T12:09:53.047Z,999.25
2018-11-04T12:10:52.653Z,999.31
2018-11-04T12:12:03.598Z,999.27
2018-11-04T12:13:03.384Z,999.24
2018-11-04T12:14:04.966Z,999.3
2018-11-04T12:15:05.145Z,999.22
2018-11-04T12:16:07.010Z,999.13
2018-11-04T12:17:08.543Z,999.27